createdAt,value
2017-01-01T00:00:00.803Z,-4.7
2017-01-01T00:00:23.481Z,-4.7
2017-01-01T00:00:45.476Z,-4.7
2017-01-01T00:01:09.685Z,-4.7
2017-01-01T00:01:32.557Z,-4.7
2017-01-01T00:01:53.839Z,-4.7
2017-01-01T00:02:15.125Z,-4.7
2017-01-01T00:02:37.092Z,-4.8
2017-01-01T00:02:59.089Z,-4.8
2017-01-01T00:03:20.920Z,-4.7
2017-01-01T00:03:42.764Z,-4.7
2017-01-01T00:04:05.591Z,-4.8
2017-01-01T00:04:26.874Z,-4.7
2017-01-01T00:04:48.173Z,-4.8
2017-01-01T00:05:09.518Z,-4.7
2017-01-01T00:05:31.757Z,-4.7
2017-01-01T00:05:53.590Z,-4.6
2017-01-01T00:06:14.900Z,-4.7
2017-01-01T00:06:36.798Z,-4.7
2017-01-01T00:06:58.093Z,-4.7
2017-01-01T00:07:19.388Z,-4.7
2017-01-01T00:07:41.628Z,-4.7
2017-01-01T00:08:03.475Z,-4.7
2017-01-01T00:08:24.793Z,-4.7
2017-01-01T00:08:46.092Z,-4.7
2017-01-01T00:09:08.432Z,-4.9
2017-01-01T00:09:31.194Z,-4.8
2017-01-01T00:09:53.337Z,-4.7
2017-01-01T00:10:14.625Z,-4.7
2017-01-01T00:10:36.829Z,-4.7
2017-01-01T00:10:59.679Z,-4.7
2017-01-01T00:11:21.885Z,-4.8
2017-01-01T00:11:45.309Z,-4.8
2017-01-01T00:12:06.634Z,-4.7
2017-01-01T00:12:29.422Z,-4.8
2017-01-01T00:12:52.063Z,-4.7
2017-01-01T00:13:14.330Z,-4.7
2017-01-01T00:13:35.608Z,-4.7
2017-01-01T00:13:56.900Z,-4.7
2017-01-01T00:14:20.823Z,-4.8
2017-01-01T00:14:42.194Z,-4.8
2017-01-01T00:15:06.113Z,-4.7
2017-01-01T00:15:27.425Z,-4.7
2017-01-01T00:15:49.324Z,-4.7
2017-01-01T00:16:11.589Z,-4.7
2017-01-01T00:16:32.912Z,-4.7
2017-01-01T00:16:56.090Z,-4.6
2017-01-01T00:17:17.369Z,-4.7
2017-01-01T00:17:40.693Z,-4.6
2017-01-01T00:18:03.699Z,-4.7
2017-01-01T00:18:26.682Z,-4.7
2017-01-01T00:18:47.997Z,-4.6
2017-01-01T00:19:10.990Z,-4.6
2017-01-01T00:19:33.183Z,-4.8
2017-01-01T00:19:56.810Z,-4.7
2017-01-01T00:20:18.706Z,-4.7
2017-01-01T00:20:40.017Z,-4.8
2017-01-01T00:21:01.801Z,-4.7
2017-01-01T00:21:23.632Z,-4.7
2017-01-01T00:21:45.627Z,-4.7
2017-01-01T00:22:07.635Z,-4.7
2017-01-01T00:22:29.435Z,-4.7
2017-01-01T00:22:50.716Z,-4.8
2017-01-01T00:23:12.021Z,-4.8
2017-01-01T00:23:33.978Z,-4.8
2017-01-01T00:23:55.767Z,-4.9
2017-01-01T00:24:18.474Z,-4.8
2017-01-01T00:24:40.562Z,-4.8
2017-01-01T00:25:02.316Z,-4.8
2017-01-01T00:25:24.542Z,-4.8
2017-01-01T00:25:46.446Z,-4.7
2017-01-01T00:26:09.473Z,-4.7
2017-01-01T00:26:30.763Z,-4.8
2017-01-01T00:26:52.923Z,-4.8
2017-01-01T00:27:14.244Z,-4.8
2017-01-01T00:27:36.483Z,-4.8
2017-01-01T00:27:57.781Z,-4.7
2017-01-01T00:28:19.924Z,-4.8
2017-01-01T00:28:42.686Z,-4.9
2017-01-01T00:29:04.847Z,-4.9
2017-01-01T00:29:26.136Z,-5
2017-01-01T00:29:48.348Z,-5
2017-01-01T00:30:10.406Z,-5
2017-01-01T00:30:32.562Z,-5
2017-01-01T00:30:54.640Z,-5.1
2017-01-01T00:31:16.605Z,-5
2017-01-01T00:31:40.183Z,-5
2017-01-01T00:32:03.990Z,-5.1
2017-01-01T00:32:26.816Z,-5
2017-01-01T00:32:48.822Z,-5.1
2017-01-01T00:33:10.109Z,-5.1
2017-01-01T00:33:31.432Z,-5.2
2017-01-01T00:33:54.668Z,-5.1
2017-01-01T00:34:15.962Z,-5.1
2017-01-01T00:34:37.248Z,-5.1
2017-01-01T00:34:58.558Z,-5.2
2017-01-01T00:35:19.855Z,-5.1
2017-01-01T00:35:41.156Z,-5.1
2017-01-01T00:36:02.453Z,-5.2
2017-01-01T00:36:24.833Z,-5.3
2017-01-01T00:36:47.684Z,-5.2
2017-01-01T00:37:08.984Z,-5.3
2017-01-01T00:37:31.816Z,-5.3
2017-01-01T00:37:54.039Z,-5.2
2017-01-01T00:38:16.266Z,-5.2
2017-01-01T00:38:39.093Z,-5.2
2017-01-01T00:39:00.368Z,-5.3
2017-01-01T00:39:22.408Z,-5.3
2017-01-01T00:39:44.475Z,-5.3
2017-01-01T00:40:05.787Z,-5.3
2017-01-01T00:40:28.045Z,-5.3
2017-01-01T00:40:49.351Z,-5.3
2017-01-01T00:41:11.817Z,-5.2
2017-01-01T00:41:33.757Z,-5.4
2017-01-01T00:41:55.897Z,-5.3
2017-01-01T00:42:17.745Z,-5.4
2017-01-01T00:42:39.681Z,-5.3
2017-01-01T00:43:01.914Z,-5.4
2017-01-01T00:43:23.225Z,-5.4
2017-01-01T00:43:45.208Z,-5.5
2017-01-01T00:44:07.806Z,-5.5
2017-01-01T00:44:29.989Z,-5.5
2017-01-01T00:44:52.259Z,-5.5
2017-01-01T00:45:13.539Z,-5.6
2017-01-01T00:45:34.866Z,-5.4
2017-01-01T00:45:56.188Z,-5.4
2017-01-01T00:46:18.309Z,-5.4
2017-01-01T00:46:39.678Z,-5.3
2017-01-01T00:47:00.976Z,-5.3
2017-01-01T00:47:22.266Z,-5.3
2017-01-01T00:47:43.565Z,-5.3
2017-01-01T00:48:04.893Z,-5.3
2017-01-01T00:48:27.550Z,-5.3
2017-01-01T00:48:50.213Z,-5.3
2017-01-01T00:49:12.992Z,-5.3
2017-01-01T00:49:36.100Z,-5.3
2017-01-01T00:49:58.209Z,-5.3
2017-01-01T00:50:20.305Z,-5.4
2017-01-01T00:50:42.207Z,-5.3
2017-01-01T00:51:04.347Z,-5.3
2017-01-01T00:51:25.661Z,-5.3
2017-01-01T00:51:47.771Z,-5.3
2017-01-01T00:52:10.625Z,-5.3
2017-01-01T00:52:31.923Z,-5.4
2017-01-01T00:52:53.230Z,-5.3
2017-01-01T00:53:15.300Z,-5.3
2017-01-01T00:53:37.646Z,-5.3
2017-01-01T00:53:59.012Z,-5.3
2017-01-01T00:54:20.829Z,-5.4
2017-01-01T00:54:42.874Z,-5.4
2017-01-01T00:55:05.645Z,-5.4
2017-01-01T00:55:26.939Z,-5.4
2017-01-01T00:55:48.240Z,-5.4
2017-01-01T00:56:09.544Z,-5.4
2017-01-01T00:56:33.477Z,-5.5
2017-01-01T00:56:56.908Z,-5.4
2017-01-01T00:57:18.201Z,-5.4
2017-01-01T00:57:39.480Z,-5.3
2017-01-01T00:58:00.761Z,-5.3
2017-01-01T00:58:23.905Z,-5.2
2017-01-01T00:58:47.681Z,-5.3
2017-01-01T00:59:11.311Z,-5.2
2017-01-01T00:59:32.598Z,-5.2
2017-01-01T00:59:53.931Z,-5.1
2017-01-01T01:00:16.594Z,-5.3
2017-01-01T01:00:38.591Z,-5.2
2017-01-01T01:01:01.751Z,-5.2
2017-01-01T01:01:24.592Z,-5.2
2017-01-01T01:01:48.594Z,-5.1
2017-01-01T01:02:09.915Z,-5
2017-01-01T01:02:31.235Z,-5.1
2017-01-01T01:02:52.527Z,-5
2017-01-01T01:03:15.093Z,-5
2017-01-01T01:03:37.818Z,-5
2017-01-01T01:04:00.061Z,-5
2017-01-01T01:04:21.349Z,-5
2017-01-01T01:04:44.094Z,-5
2017-01-01T01:05:06.180Z,-5
2017-01-01T01:05:28.414Z,-4.9
2017-01-01T01:05:51.094Z,-4.9
2017-01-01T01:06:13.682Z,-5
2017-01-01T01:06:36.680Z,-4.9
2017-01-01T01:06:57.981Z,-4.8
2017-01-01T01:07:19.293Z,-4.9
2017-01-01T01:07:41.594Z,-5
2017-01-01T01:08:02.933Z,-4.9
2017-01-01T01:08:25.617Z,-4.9
2017-01-01T01:08:49.197Z,-4.9
2017-01-01T01:09:10.539Z,-4.8
2017-01-01T01:09:32.815Z,-4.8
2017-01-01T01:09:55.040Z,-4.8
2017-01-01T01:10:16.360Z,-4.9
2017-01-01T01:10:38.654Z,-4.9
2017-01-01T01:11:01.596Z,-4.9
2017-01-01T01:11:23.424Z,-4.9
2017-01-01T01:11:46.115Z,-4.8
2017-01-01T01:12:09.108Z,-4.9
2017-01-01T01:12:31.403Z,-4.9
2017-01-01T01:12:53.257Z,-4.9
2017-01-01T01:13:18.101Z,-4.9
2017-01-01T01:13:42.008Z,-5
2017-01-01T01:14:05.487Z,-5
2017-01-01T01:14:26.768Z,-5
2017-01-01T01:14:48.776Z,-5.1
2017-01-01T01:15:10.747Z,-5
2017-01-01T01:15:33.710Z,-5.1
2017-01-01T01:15:55.985Z,-5
2017-01-01T01:16:17.271Z,-5
2017-01-01T01:16:39.269Z,-5
2017-01-01T01:17:00.605Z,-4.9
2017-01-01T01:17:21.902Z,-4.9
2017-01-01T01:17:43.192Z,-5
2017-01-01T01:18:05.100Z,-4.9
2017-01-01T01:18:26.902Z,-4.9
2017-01-01T01:18:48.218Z,-4.9
2017-01-01T01:19:11.181Z,-4.9
2017-01-01T01:19:33.313Z,-4.9
2017-01-01T01:19:54.628Z,-5
2017-01-01T01:20:15.915Z,-4.9
2017-01-01T01:20:37.778Z,-4.9
2017-01-01T01:20:59.811Z,-4.9
2017-01-01T01:21:22.595Z,-4.9
2017-01-01T01:21:44.429Z,-4.9
2017-01-01T01:22:05.721Z,-4.9
2017-01-01T01:22:27.007Z,-4.9
2017-01-01T01:22:48.303Z,-4.9
2017-01-01T01:23:11.260Z,-4.9
2017-01-01T01:23:33.970Z,-4.9
2017-01-01T01:23:55.807Z,-5
2017-01-01T01:24:17.869Z,-5
2017-01-01T01:24:40.100Z,-5
2017-01-01T01:25:02.060Z,-5
2017-01-01T01:25:23.355Z,-5
2017-01-01T01:25:44.642Z,-5.1
2017-01-01T01:26:07.551Z,-5
2017-01-01T01:26:28.849Z,-5.1
2017-01-01T01:26:51.814Z,-5.2
2017-01-01T01:27:13.649Z,-5.1
2017-01-01T01:27:35.613Z,-5.1
2017-01-01T01:27:56.901Z,-5.3
2017-01-01T01:28:18.205Z,-5.3
2017-01-01T01:28:39.514Z,-5.2
2017-01-01T01:29:00.825Z,-5.2
2017-01-01T01:29:23.900Z,-5.2
2017-01-01T01:29:45.923Z,-5.2
2017-01-01T01:30:08.564Z,-5.2
2017-01-01T01:30:31.412Z,-5.1
2017-01-01T01:30:54.193Z,-5.2
2017-01-01T01:31:15.489Z,-5.2
2017-01-01T01:31:38.132Z,-5.1
2017-01-01T01:32:01.595Z,-5.2
2017-01-01T01:32:24.475Z,-5.1
2017-01-01T01:32:46.826Z,-5.1
2017-01-01T01:33:08.127Z,-5.1
2017-01-01T01:33:29.421Z,-5.1
2017-01-01T01:33:50.742Z,-5.1
2017-01-01T01:34:12.699Z,-5.1
2017-01-01T01:34:36.189Z,-5.1
2017-01-01T01:34:58.345Z,-5.1
2017-01-01T01:35:22.097Z,-5.2
2017-01-01T01:35:45.079Z,-5.2
2017-01-01T01:36:08.096Z,-5.2
2017-01-01T01:36:29.396Z,-5.2
2017-01-01T01:36:51.412Z,-5.3
2017-01-01T01:37:13.327Z,-5.2
2017-01-01T01:37:35.343Z,-5.2
2017-01-01T01:37:57.409Z,-5.2
2017-01-01T01:38:20.649Z,-5.3
2017-01-01T01:38:43.558Z,-5.2
2017-01-01T01:39:06.486Z,-5.2
2017-01-01T01:39:27.781Z,-5.1
2017-01-01T01:39:50.406Z,-5.2
2017-01-01T01:40:12.341Z,-5.3
2017-01-01T01:40:34.327Z,-5.2
2017-01-01T01:40:58.103Z,-5.2
2017-01-01T01:41:19.401Z,-5.2
2017-01-01T01:41:40.685Z,-5.2
2017-01-01T01:42:02.703Z,-5.1
2017-01-01T01:42:24.034Z,-5.2
2017-01-01T01:42:45.334Z,-5.1
2017-01-01T01:43:06.647Z,-5.1
2017-01-01T01:43:28.751Z,-5.2
2017-01-01T01:43:50.043Z,-5.2
2017-01-01T01:44:12.562Z,-5.1
2017-01-01T01:44:34.462Z,-5.1
2017-01-01T01:44:56.365Z,-5.1
2017-01-01T01:45:17.657Z,-5.2
2017-01-01T01:45:39.622Z,-5.1
2017-01-01T01:46:00.911Z,-5.2
2017-01-01T01:46:22.789Z,-5.1
2017-01-01T01:46:44.092Z,-5.1
2017-01-01T01:47:07.257Z,-5.2
2017-01-01T01:47:29.946Z,-5.1
2017-01-01T01:47:52.319Z,-5.2
2017-01-01T01:48:13.606Z,-5.1
2017-01-01T01:48:35.488Z,-5.2
2017-01-01T01:48:56.785Z,-5.1
2017-01-01T01:49:18.097Z,-5.2
2017-01-01T01:49:39.923Z,-5.2
2017-01-01T01:50:01.203Z,-5.2
2017-01-01T01:50:22.985Z,-5.2
2017-01-01T01:50:44.286Z,-5.1
2017-01-01T01:51:06.096Z,-5.2
2017-01-01T01:51:28.686Z,-5.2
2017-01-01T01:51:50.819Z,-5.2
2017-01-01T01:52:13.911Z,-5.2
2017-01-01T01:52:35.228Z,-5.1
2017-01-01T01:52:56.987Z,-5.2
2017-01-01T01:53:19.270Z,-5.1
2017-01-01T01:53:44.839Z,-5.1
2017-01-01T01:54:07.913Z,-5.2
2017-01-01T01:54:29.797Z,-5.1
2017-01-01T01:54:51.090Z,-5.2
2017-01-01T01:55:12.996Z,-5.1
2017-01-01T01:55:35.140Z,-5.1
2017-01-01T01:55:58.198Z,-5.2
2017-01-01T01:56:19.495Z,-5.2
2017-01-01T01:56:41.492Z,-5.1
2017-01-01T01:57:03.269Z,-5.2
2017-01-01T01:57:25.305Z,-5.1
2017-01-01T01:57:46.620Z,-5.1
2017-01-01T01:58:08.776Z,-5.2
2017-01-01T01:58:30.831Z,-5.2
2017-01-01T01:58:52.134Z,-5.1
2017-01-01T01:59:14.683Z,-5.2
2017-01-01T01:59:35.998Z,-5.2
2017-01-01T01:59:58.597Z,-5.2
2017-01-01T02:00:20.631Z,-5.2
2017-01-01T02:00:42.704Z,-5.2
2017-01-01T02:01:04.010Z,-5.1
2017-01-01T02:01:26.594Z,-5.2
2017-01-01T02:01:49.590Z,-5.2
2017-01-01T02:02:14.304Z,-5.1
2017-01-01T02:02:35.586Z,-5.1
2017-01-01T02:02:56.899Z,-5.1
2017-01-01T02:03:18.196Z,-5.1
2017-01-01T02:03:40.483Z,-5.1
2017-01-01T02:04:01.770Z,-5.1
2017-01-01T02:04:23.070Z,-5.1
2017-01-01T02:04:44.383Z,-5.1
2017-01-01T02:05:08.099Z,-5.2
2017-01-01T02:05:29.457Z,-5.1
2017-01-01T02:05:50.767Z,-5.2
2017-01-01T02:06:12.090Z,-5.1
2017-01-01T02:06:35.053Z,-5.1
2017-01-01T02:06:56.354Z,-5
2017-01-01T02:07:19.204Z,-5.1
2017-01-01T02:07:43.206Z,-5.1
2017-01-01T02:08:06.914Z,-5.2
2017-01-01T02:08:28.882Z,-5.1
2017-01-01T02:08:50.193Z,-5.1
2017-01-01T02:09:12.990Z,-5.1
2017-01-01T02:09:35.186Z,-5.1
2017-01-01T02:09:57.187Z,-5.3
2017-01-01T02:10:19.271Z,-5.3
2017-01-01T02:10:42.278Z,-5.2
2017-01-01T02:11:03.575Z,-5.2
2017-01-01T02:11:24.883Z,-5.3
2017-01-01T02:11:47.316Z,-5.3
2017-01-01T02:12:08.609Z,-5.3
2017-01-01T02:12:31.431Z,-5.3
2017-01-01T02:12:52.720Z,-5.2
2017-01-01T02:13:14.564Z,-5.3
2017-01-01T02:13:35.863Z,-5.3
2017-01-01T02:13:57.692Z,-5.2
2017-01-01T02:14:19.600Z,-5.2
2017-01-01T02:14:40.904Z,-5.3
2017-01-01T02:15:02.197Z,-5.2
2017-01-01T02:15:23.486Z,-5.2
2017-01-01T02:15:44.786Z,-5.2
2017-01-01T02:16:08.096Z,-5.2
2017-01-01T02:16:31.824Z,-5.1
2017-01-01T02:16:53.716Z,-5.1
2017-01-01T02:17:14.993Z,-5.2
2017-01-01T02:17:37.100Z,-5.3
2017-01-01T02:17:59.316Z,-5.2
2017-01-01T02:18:22.194Z,-5.2
2017-01-01T02:18:44.143Z,-5.3
2017-01-01T02:19:06.273Z,-5.2
2017-01-01T02:19:29.201Z,-5.2
2017-01-01T02:19:50.481Z,-5.2
2017-01-01T02:20:11.826Z,-5.1
2017-01-01T02:20:33.133Z,-5.1
2017-01-01T02:20:55.425Z,-5.1
2017-01-01T02:21:18.081Z,-5.1
2017-01-01T02:21:39.419Z,-5.2
2017-01-01T02:22:00.704Z,-5.1
2017-01-01T02:22:22.031Z,-5.2
2017-01-01T02:22:44.009Z,-5.2
2017-01-01T02:23:05.355Z,-5.3
2017-01-01T02:23:27.324Z,-5.2
2017-01-01T02:23:49.102Z,-5.3
2017-01-01T02:24:10.942Z,-5.2
2017-01-01T02:24:32.266Z,-5.2
2017-01-01T02:24:54.477Z,-5.2
2017-01-01T02:25:15.835Z,-5.2
2017-01-01T02:25:37.131Z,-5.2
2017-01-01T02:25:58.434Z,-5.2
2017-01-01T02:26:21.007Z,-5.2
2017-01-01T02:26:43.073Z,-5.3
2017-01-01T02:27:04.395Z,-5.3
2017-01-01T02:27:28.418Z,-5.3
2017-01-01T02:27:52.191Z,-5.2
2017-01-01T02:28:13.493Z,-5.2
2017-01-01T02:28:35.514Z,-5.2
2017-01-01T02:29:05.209Z,-5.3
2017-01-01T02:29:26.527Z,-5.2
2017-01-01T02:29:50.600Z,-5.2
2017-01-01T02:30:11.927Z,-5.3
2017-01-01T02:30:34.010Z,-5.2
2017-01-01T02:30:55.905Z,-5.2
2017-01-01T02:31:17.808Z,-5.2
2017-01-01T02:31:40.539Z,-5.2
2017-01-01T02:32:01.835Z,-5.2
2017-01-01T02:32:24.702Z,-5.3
2017-01-01T02:32:46.030Z,-5.3
2017-01-01T02:33:07.343Z,-5.3
2017-01-01T02:33:29.420Z,-5.3
2017-01-01T02:33:50.713Z,-5.3
2017-01-01T02:34:12.033Z,-5.3
2017-01-01T02:34:33.992Z,-5.3
2017-01-01T02:34:56.602Z,-5.3
2017-01-01T02:35:19.429Z,-5.3
2017-01-01T02:35:41.429Z,-5.4
2017-01-01T02:36:03.309Z,-5.3
2017-01-01T02:36:24.622Z,-5.4
2017-01-01T02:36:45.951Z,-5.3
2017-01-01T02:37:08.601Z,-5.3
2017-01-01T02:37:29.887Z,-5.3
2017-01-01T02:37:51.199Z,-5.3
2017-01-01T02:38:14.064Z,-5.3
2017-01-01T02:38:35.371Z,-5.3
2017-01-01T02:38:58.201Z,-5.3
2017-01-01T02:39:19.507Z,-5.3
2017-01-01T02:39:40.782Z,-5.3
2017-01-01T02:40:02.056Z,-5.3
2017-01-01T02:40:24.336Z,-5.3
2017-01-01T02:40:46.273Z,-5.3
2017-01-01T02:41:08.054Z,-5.3
2017-01-01T02:41:30.055Z,-5.3
2017-01-01T02:41:51.890Z,-5.3
2017-01-01T02:42:13.861Z,-5.3
2017-01-01T02:42:35.147Z,-5.4
2017-01-01T02:42:57.099Z,-5.3
2017-01-01T02:43:18.389Z,-5.4
2017-01-01T02:43:41.706Z,-5.3
2017-01-01T02:44:03.007Z,-5.4
2017-01-01T02:44:25.324Z,-5.4
2017-01-01T02:44:47.293Z,-5.4
2017-01-01T02:45:09.137Z,-5.4
2017-01-01T02:45:30.418Z,-5.4
2017-01-01T02:45:51.725Z,-5.4
2017-01-01T02:46:13.635Z,-5.3
2017-01-01T02:46:35.631Z,-5.4
2017-01-01T02:46:56.938Z,-5.4
2017-01-01T02:47:21.598Z,-5.3
2017-01-01T02:47:45.322Z,-5.3
2017-01-01T02:48:06.635Z,-5.3
2017-01-01T02:48:28.629Z,-5.3
2017-01-01T02:48:52.430Z,-5.3
2017-01-01T02:49:13.728Z,-5.3
2017-01-01T02:49:35.784Z,-5.4
2017-01-01T02:49:57.657Z,-5.2
2017-01-01T02:50:20.466Z,-5.3
2017-01-01T02:50:42.419Z,-5.2
2017-01-01T02:51:05.103Z,-5.3
2017-01-01T02:51:28.702Z,-5.3
2017-01-01T02:51:51.486Z,-5.4
2017-01-01T02:52:13.935Z,-5.4
2017-01-01T02:52:35.837Z,-5.6
2017-01-01T02:52:57.150Z,-5.5
2017-01-01T02:53:20.102Z,-5.5
2017-01-01T02:53:42.352Z,-5.5
2017-01-01T02:54:04.567Z,-5.5
2017-01-01T02:54:25.883Z,-5.6
2017-01-01T02:54:48.601Z,-5.5
2017-01-01T02:55:09.915Z,-5.6
2017-01-01T02:55:32.599Z,-5.5
2017-01-01T02:55:55.198Z,-5.5
2017-01-01T02:56:17.324Z,-5.6
2017-01-01T02:56:39.267Z,-5.5
2017-01-01T02:57:01.317Z,-5.6
2017-01-01T02:57:23.307Z,-5.6
2017-01-01T02:57:45.828Z,-5.6
2017-01-01T02:58:08.802Z,-5.7
2017-01-01T02:58:31.801Z,-5.6
2017-01-01T02:58:53.982Z,-5.6
2017-01-01T02:59:17.086Z,-5.5
2017-01-01T02:59:40.060Z,-5.6
2017-01-01T03:00:03.269Z,-5.4
2017-01-01T03:00:24.574Z,-5.5
2017-01-01T03:00:45.870Z,-5.5
2017-01-01T03:01:07.989Z,-5.5
2017-01-01T03:01:30.142Z,-5.4
2017-01-01T03:01:53.847Z,-5.4
2017-01-01T03:02:16.644Z,-5.4
2017-01-01T03:02:38.602Z,-5.3
2017-01-01T03:03:02.327Z,-5.4
2017-01-01T03:03:25.920Z,-5.3
2017-01-01T03:03:47.216Z,-5.4
2017-01-01T03:04:09.150Z,-5.3
2017-01-01T03:04:31.139Z,-5.3
2017-01-01T03:04:54.677Z,-5.3
2017-01-01T03:05:17.768Z,-5.3
2017-01-01T03:05:39.920Z,-5.3
2017-01-01T03:06:01.823Z,-5.3
2017-01-01T03:06:23.137Z,-5.2
2017-01-01T03:06:45.822Z,-5.2
2017-01-01T03:07:07.714Z,-5.2
2017-01-01T03:07:30.506Z,-5.3
2017-01-01T03:07:52.484Z,-5.2
2017-01-01T03:08:14.692Z,-5.2
2017-01-01T03:08:38.177Z,-5.2
2017-01-01T03:09:01.102Z,-5.1
2017-01-01T03:09:23.147Z,-5.3
2017-01-01T03:09:44.443Z,-5.2
2017-01-01T03:10:07.205Z,-5.2
2017-01-01T03:10:32.055Z,-5.2
2017-01-01T03:10:55.177Z,-5.2
2017-01-01T03:11:18.100Z,-5.2
2017-01-01T03:11:39.394Z,-5.2
2017-01-01T03:12:01.981Z,-5.3
2017-01-01T03:12:24.188Z,-5.2
2017-01-01T03:12:48.911Z,-5.2
2017-01-01T03:13:11.678Z,-5.2
2017-01-01T03:13:33.779Z,-5.2
2017-01-01T03:13:55.125Z,-5.2
2017-01-01T03:14:18.189Z,-5.3
2017-01-01T03:14:40.281Z,-5.2
2017-01-01T03:15:02.979Z,-5.2
2017-01-01T03:15:24.274Z,-5.2
2017-01-01T03:15:46.197Z,-5.3
2017-01-01T03:16:09.101Z,-5.2
2017-01-01T03:16:32.817Z,-5.2
2017-01-01T03:16:54.822Z,-5.3
2017-01-01T03:17:16.105Z,-5.2
2017-01-01T03:17:37.397Z,-5.2
2017-01-01T03:17:59.351Z,-5.3
2017-01-01T03:18:21.201Z,-5.4
2017-01-01T03:18:42.498Z,-5.4
2017-01-01T03:19:04.337Z,-5.5
2017-01-01T03:19:27.166Z,-5.6
2017-01-01T03:19:48.458Z,-5.6
2017-01-01T03:20:11.183Z,-5.6
2017-01-01T03:20:32.484Z,-5.5
2017-01-01T03:20:54.405Z,-5.5
2017-01-01T03:21:15.737Z,-5.4
2017-01-01T03:21:38.726Z,-5.6
2017-01-01T03:22:00.732Z,-5.4
2017-01-01T03:22:23.218Z,-5.5
2017-01-01T03:22:44.534Z,-5.4
2017-01-01T03:23:08.145Z,-5.4
2017-01-01T03:23:30.230Z,-5.5
2017-01-01T03:23:52.464Z,-5.4
2017-01-01T03:24:15.143Z,-5.4
2017-01-01T03:24:36.479Z,-5.4
2017-01-01T03:24:57.789Z,-5.5
2017-01-01T03:25:20.458Z,-5.4
2017-01-01T03:25:43.324Z,-5.4
2017-01-01T03:26:04.656Z,-5.3
2017-01-01T03:26:26.737Z,-5.4
2017-01-01T03:26:48.042Z,-5.3
2017-01-01T03:27:09.338Z,-5.3
2017-01-01T03:27:30.669Z,-5.3
2017-01-01T03:27:52.569Z,-5.3
2017-01-01T03:28:14.397Z,-5.4
2017-01-01T03:28:37.238Z,-5.4
2017-01-01T03:28:59.219Z,-5.4
2017-01-01T03:29:21.959Z,-5.3
2017-01-01T03:29:45.483Z,-5.3
2017-01-01T03:30:08.518Z,-5.4
2017-01-01T03:30:29.826Z,-5.4
2017-01-01T03:30:51.678Z,-5.4
2017-01-01T03:31:14.219Z,-5.4
2017-01-01T03:31:36.112Z,-5.4
2017-01-01T03:31:58.123Z,-5.4
2017-01-01T03:32:19.429Z,-5.3
2017-01-01T03:32:40.745Z,-5.3
2017-01-01T03:33:03.611Z,-5.4
2017-01-01T03:33:26.600Z,-5.3
2017-01-01T03:33:49.710Z,-5.3
2017-01-01T03:34:12.382Z,-5.4
2017-01-01T03:34:33.693Z,-5.3
2017-01-01T03:34:55.005Z,-5.3
2017-01-01T03:35:17.746Z,-5.3
2017-01-01T03:35:39.912Z,-5.3
2017-01-01T03:36:02.643Z,-5.4
2017-01-01T03:36:24.545Z,-5.3
2017-01-01T03:36:45.840Z,-5.4
2017-01-01T03:37:07.685Z,-5.4
2017-01-01T03:37:29.867Z,-5.4
2017-01-01T03:37:51.889Z,-5.4
2017-01-01T03:38:14.106Z,-5.4
2017-01-01T03:38:35.390Z,-5.4
2017-01-01T03:38:56.827Z,-5.3
2017-01-01T03:39:18.730Z,-5.4
2017-01-01T03:39:41.670Z,-5.4
2017-01-01T03:40:02.968Z,-5.4
2017-01-01T03:40:24.888Z,-5.3
2017-01-01T03:40:47.979Z,-5.4
2017-01-01T03:41:10.034Z,-5.3
2017-01-01T03:41:32.031Z,-5.4
2017-01-01T03:41:54.180Z,-5.3
2017-01-01T03:42:15.481Z,-5.4
2017-01-01T03:42:37.678Z,-5.4
2017-01-01T03:42:59.052Z,-5.4
2017-01-01T03:43:22.372Z,-5.4
2017-01-01T03:43:43.671Z,-5.4
2017-01-01T03:44:05.720Z,-5.4
2017-01-01T03:44:27.517Z,-5.3
2017-01-01T03:44:48.810Z,-5.4
2017-01-01T03:45:10.811Z,-5.3
2017-01-01T03:45:32.948Z,-5.4
2017-01-01T03:45:54.741Z,-5.4
2017-01-01T03:46:16.038Z,-5.4
2017-01-01T03:46:39.372Z,-5.4
2017-01-01T03:47:03.221Z,-5.4
2017-01-01T03:47:24.542Z,-5.4
2017-01-01T03:47:47.359Z,-5.4
2017-01-01T03:48:10.404Z,-5.4
2017-01-01T03:48:31.704Z,-5.4
2017-01-01T03:48:53.588Z,-5.4
2017-01-01T03:49:15.913Z,-5.4
2017-01-01T03:49:37.213Z,-5.4
2017-01-01T03:49:58.501Z,-5.4
2017-01-01T03:50:20.565Z,-5.4
2017-01-01T03:50:42.979Z,-5.4
2017-01-01T03:51:14.299Z,-5.5
2017-01-01T03:51:40.346Z,-5.5
2017-01-01T03:52:01.642Z,-5.4
2017-01-01T03:52:23.871Z,-5.4
2017-01-01T03:52:45.180Z,-5.5
2017-01-01T03:53:08.416Z,-5.5
2017-01-01T03:53:29.712Z,-5.5
2017-01-01T03:53:51.904Z,-5.5
2017-01-01T03:54:13.785Z,-5.5
2017-01-01T03:54:38.683Z,-5.4
2017-01-01T03:55:05.084Z,-5.5
2017-01-01T03:55:29.185Z,-5.4
2017-01-01T03:55:54.210Z,-5.5
2017-01-01T03:56:18.498Z,-5.5
2017-01-01T03:56:41.861Z,-5.5
2017-01-01T03:57:04.633Z,-5.5
2017-01-01T03:57:28.780Z,-5.6
2017-01-01T03:57:57.453Z,-5.5
2017-01-01T03:58:24.766Z,-5.5
2017-01-01T03:58:49.182Z,-5.5
2017-01-01T03:59:13.353Z,-5.5
2017-01-01T03:59:38.129Z,-5.5
2017-01-01T04:00:01.625Z,-5.5
2017-01-01T04:00:24.592Z,-5.4
2017-01-01T04:00:47.870Z,-5.5
2017-01-01T04:01:10.534Z,-5.4
2017-01-01T04:01:34.761Z,-5.5
2017-01-01T04:01:58.320Z,-5.4
2017-01-01T04:02:21.084Z,-5.4
2017-01-01T04:02:46.327Z,-5.4
2017-01-01T04:03:10.225Z,-5.4
2017-01-01T04:03:32.491Z,-5.4
2017-01-01T04:03:58.861Z,-5.4
2017-01-01T04:04:22.185Z,-5.4
2017-01-01T04:04:46.774Z,-5.4
2017-01-01T04:05:11.880Z,-5.4
2017-01-01T04:05:36.321Z,-5.4
2017-01-01T04:05:59.852Z,-5.4
2017-01-01T04:06:23.081Z,-5.4
2017-01-01T04:06:45.379Z,-5.4
2017-01-01T04:07:09.273Z,-5.4
2017-01-01T04:07:33.988Z,-5.4
2017-01-01T04:07:57.350Z,-5.4
2017-01-01T04:08:20.684Z,-5.4
2017-01-01T04:08:42.960Z,-5.4
2017-01-01T04:09:06.430Z,-5.4
2017-01-01T04:09:28.287Z,-5.4
2017-01-01T04:09:51.892Z,-5.4
2017-01-01T04:10:14.010Z,-5.4
2017-01-01T04:10:36.060Z,-5.4
2017-01-01T04:10:58.139Z,-5.4
2017-01-01T04:11:23.836Z,-5.4
2017-01-01T04:11:50.375Z,-5.4
2017-01-01T04:12:12.590Z,-5.5
2017-01-01T04:12:33.887Z,-5.5
2017-01-01T04:12:55.170Z,-5.5
2017-01-01T04:13:16.499Z,-5.5
2017-01-01T04:13:41.182Z,-5.6
2017-01-01T04:14:02.495Z,-5.6
2017-01-01T04:14:23.774Z,-5.5
2017-01-01T04:14:45.088Z,-5.6
2017-01-01T04:15:06.386Z,-5.5
2017-01-01T04:15:29.405Z,-5.6
2017-01-01T04:15:51.517Z,-5.5
2017-01-01T04:16:13.743Z,-5.5
2017-01-01T04:16:35.743Z,-5.4
2017-01-01T04:16:58.686Z,-5.4
2017-01-01T04:17:19.989Z,-5.5
2017-01-01T04:17:41.290Z,-5.4
2017-01-01T04:18:02.602Z,-5.4
2017-01-01T04:18:24.568Z,-5.4
2017-01-01T04:18:46.683Z,-5.4
2017-01-01T04:19:08.008Z,-5.4
2017-01-01T04:19:29.958Z,-5.4
2017-01-01T04:19:52.670Z,-5.4
2017-01-01T04:20:14.853Z,-5.4
2017-01-01T04:20:37.017Z,-5.4
2017-01-01T04:20:59.792Z,-5.4
2017-01-01T04:21:24.011Z,-5.5
2017-01-01T04:21:47.920Z,-5.4
2017-01-01T04:22:12.183Z,-5.4
2017-01-01T04:22:35.046Z,-5.5
2017-01-01T04:22:59.686Z,-5.5
2017-01-01T04:23:26.413Z,-5.5
2017-01-01T04:23:51.515Z,-5.5
2017-01-01T04:24:16.713Z,-5.5
2017-01-01T04:24:39.680Z,-5.5
2017-01-01T04:25:04.553Z,-5.5
2017-01-01T04:25:26.461Z,-5.5
2017-01-01T04:25:48.289Z,-5.5
2017-01-01T04:26:09.597Z,-5.5
2017-01-01T04:26:30.885Z,-5.5
2017-01-01T04:26:52.236Z,-5.4
2017-01-01T04:27:13.562Z,-5.5
2017-01-01T04:27:35.642Z,-5.5
2017-01-01T04:28:00.257Z,-5.4
2017-01-01T04:28:22.389Z,-5.5
2017-01-01T04:28:44.683Z,-5.4
2017-01-01T04:29:06.906Z,-5.5
2017-01-01T04:29:29.654Z,-5.4
2017-01-01T04:29:51.638Z,-5.4
2017-01-01T04:30:12.939Z,-5.4
2017-01-01T04:30:34.243Z,-5.4
2017-01-01T04:30:55.541Z,-5.4
2017-01-01T04:31:17.417Z,-5.4
2017-01-01T04:31:38.698Z,-5.5
2017-01-01T04:32:01.570Z,-5.4
2017-01-01T04:32:24.507Z,-5.4
2017-01-01T04:32:45.833Z,-5.5
2017-01-01T04:33:08.010Z,-5.4
2017-01-01T04:33:29.315Z,-5.4
2017-01-01T04:33:51.290Z,-5.4
2017-01-01T04:34:13.407Z,-5.4
2017-01-01T04:34:34.701Z,-5.4
2017-01-01T04:34:56.019Z,-5.4
2017-01-01T04:35:17.316Z,-5.5
2017-01-01T04:35:39.184Z,-5.4
2017-01-01T04:36:01.352Z,-5.4
2017-01-01T04:36:23.508Z,-5.5
2017-01-01T04:36:46.770Z,-5.5
2017-01-01T04:37:11.289Z,-5.5
2017-01-01T04:37:32.617Z,-5.6
2017-01-01T04:37:54.899Z,-5.6
2017-01-01T04:38:16.210Z,-5.7
2017-01-01T04:38:37.536Z,-5.7
2017-01-01T04:39:03.653Z,-5.5
2017-01-01T04:39:24.948Z,-5.6
2017-01-01T04:39:47.007Z,-5.5
2017-01-01T04:40:08.907Z,-5.7
2017-01-01T04:40:30.229Z,-5.5
2017-01-01T04:40:52.530Z,-5.5
2017-01-01T04:41:14.497Z,-5.6
2017-01-01T04:41:35.787Z,-5.5
2017-01-01T04:41:58.515Z,-5.6
2017-01-01T04:42:20.716Z,-5.6
2017-01-01T04:42:44.583Z,-5.5
2017-01-01T04:43:08.019Z,-5.5
2017-01-01T04:43:31.901Z,-5.5
2017-01-01T04:43:53.213Z,-5.5
2017-01-01T04:44:17.073Z,-5.5
2017-01-01T04:44:39.140Z,-5.6
2017-01-01T04:45:00.446Z,-5.5
2017-01-01T04:45:22.510Z,-5.5
2017-01-01T04:45:43.816Z,-5.5
2017-01-01T04:46:05.713Z,-5.5
2017-01-01T04:46:27.916Z,-5.5
2017-01-01T04:46:49.779Z,-5.5
2017-01-01T04:47:13.188Z,-5.5
2017-01-01T04:47:36.381Z,-5.5
2017-01-01T04:47:59.271Z,-5.5
2017-01-01T04:48:22.080Z,-5.5
2017-01-01T04:48:46.188Z,-5.5
2017-01-01T04:49:10.904Z,-5.5
2017-01-01T04:49:33.679Z,-5.5
2017-01-01T04:49:55.798Z,-5.4
2017-01-01T04:50:17.088Z,-5.4
2017-01-01T04:50:52.980Z,-5.5
2017-01-01T04:51:14.930Z,-5.4
2017-01-01T04:51:36.232Z,-5.4
2017-01-01T04:52:01.797Z,-5.4
2017-01-01T04:52:25.143Z,-5.4
2017-01-01T04:52:46.935Z,-5.4
2017-01-01T04:53:10.777Z,-5.4
2017-01-01T04:53:32.081Z,-5.4
2017-01-01T04:53:54.186Z,-5.3
2017-01-01T04:54:16.078Z,-5.3
2017-01-01T04:54:39.283Z,-5.3
2017-01-01T04:55:02.713Z,-5.4
2017-01-01T04:55:24.775Z,-5.4
2017-01-01T04:55:46.916Z,-5.4
2017-01-01T04:56:08.779Z,-5.3
2017-01-01T04:56:30.932Z,-5.4
2017-01-01T04:56:52.257Z,-5.4
2017-01-01T04:57:14.916Z,-5.4